Pont Aven — FNPN — position and weather

sailwx.info

Track history (hours):
 
Tides and Currents Weather Stations Pressure Air Temp Water Temp Dewpoint Dewpoint Depression Visibility Wind Speed Wind Dir Waves Ship Positions

Pont Aven

Last reported at 2019-Dec-15 07:30 UTC. Time now 2019-Dec-15 10:42 UTC.
Position N 50°49' W 001°06'.

Length 185 m; beam 31 m.

Type: Passenger vessel. MMSI: 228183600.

Date/timePositionNaut miles runAvg speedWind from/ knotsBaromVisibWave heightAir tempDewpointWater temp
2019-Dec-15 07:30N 50°49' W 001°06'6514.5
2019-Dec-15 03:03N 49°52' W 001°53'116.7
2019-Dec-15 02:58N 49°50' W 001°55'2513.0
2019-Dec-15 01:00N 49°28' W 002°14'1616.2
2019-Dec-15 00:00N 49°16' W 002°29'4 0.2
2019-Dec-14 04:36N 49°15' W 002°24'318.9
2019-Dec-14 04:27N 49°17' W 002°24'1314.2
2019-Dec-14 03:31N 49°29' W 002°13'815.9
2019-Dec-14 02:59N 49°36' W 002°07'6416.2
2019-Dec-13 23:01N 50°31' W 001°15'5 9.7
2019-Dec-13 22:31N 50°35' W 001°10'14 7.2
2019-Dec-13 20:30N 50°49' W 001°06'0 0.1
2019-Dec-13 18:31N 50°49' W 001°06'0 0.0
2019-Dec-13 17:00N 50°49' W 001°06'0 0.0
2019-Dec-13 16:00N 50°49' W 001°06'0 0.0
2019-Dec-13 13:00N 50°49' W 001°06'0 0.0
2019-Dec-13 08:30N 50°49' W 001°06'0 0.0
2019-Dec-13 07:01N 50°49' W 001°06'0 0.0
2019-Dec-13 06:30N 50°49' W 001°06'0 0.0
2019-Dec-13 06:00N 50°49' W 001°06'0 0.0
2019-Dec-13 04:30N 50°49' W 001°06'0 0.0
2019-Dec-13 02:01N 50°49' W 001°06'1 0.4
2019-Dec-12 23:30N 50°48' W 001°07'30 8.7
2019-Dec-12 20:00N 50°38' W 001°52'4 0.7
2019-Dec-12 15:00N 50°34' W 001°53'2 1.3
2019-Dec-12 13:30N 50°36' W 001°53'6 5.7
2019-Dec-12 12:30N 50°42' W 001°50'14 8.3
2019-Dec-12 10:50N 50°35' W 001°31'410.6
2019-Dec-12 10:30N 50°34' W 001°25'12 8.0
2019-Dec-12 09:00N 50°37' W 001°07'11 7.3
2019-Dec-12 07:31N 50°48' W 001°07'1 0.8
2019-Dec-12 06:00N 50°49' W 001°06'0 0.0
2019-Dec-12 04:30N 50°49' W 001°06'0 0.0
2019-Dec-12 02:00N 50°49' W 001°06'0 0.0
2019-Dec-12 01:30N 50°49' W 001°06'0 0.0
2019-Dec-12 00:30N 50°49' W 001°06'0 0.0
2019-Dec-12 00:00N 50°49' W 001°06'0 0.0
2019-Dec-11 22:30N 50°49' W 001°06'0 0.0
2019-Dec-11 21:00N 50°49' W 001°06'0 0.0
2019-Dec-11 19:30N 50°49' W 001°06'11313.3
2019-Dec-11 11:00N 49°07' W 002°23'9 1.3
2019-Dec-11 04:19N 49°16' W 002°22'1416.1
2019-Dec-11 03:29N 49°28' W 002°13'816.8
2019-Dec-11 03:00N 49°35' W 002°08'6713.0
2019-Dec-10 21:49N 50°32' W 001°11'1511.2
2019-Dec-10 20:31N 50°46' W 001°05'3 1.4
2019-Dec-10 18:30N 50°49' W 001°06'0 0.0
2019-Dec-10 16:30N 50°49' W 001°06'0 0.0
2019-Dec-10 14:30N 50°49' W 001°06'0 0.0
2019-Dec-10 13:00N 50°49' W 001°06'0 0.0
2019-Dec-10 12:30N 50°49' W 001°06'0 0.0
2019-Dec-10 11:30N 50°49' W 001°06'0 0.0
2019-Dec-10 10:30N 50°49' W 001°06'0 0.0
2019-Dec-10 09:30N 50°49' W 001°06'0 0.0
2019-Dec-10 09:00N 50°49' W 001°06'0 0.0
2019-Dec-10 06:30N 50°49' W 001°06'0 0.0
2019-Dec-10 04:30N 50°49' W 001°06'0 0.0
2019-Dec-10 03:30N 50°49' W 001°06'0 0.0
2019-Dec-10 03:00N 50°49' W 001°06'0 0.0
2019-Dec-10 02:00N 50°49' W 001°06'0 0.0
2019-Dec-09 22:00N 50°49' W 001°05'0 0.0
2019-Dec-09 21:00N 50°49' W 001°05'0 0.0
2019-Dec-09 20:30N 50°49' W 001°05'0 0.6
2019-Dec-09 20:00N 50°49' W 001°06'0 0.1
2019-Dec-09 18:01N 50°49' W 001°06'4 0.2
2019-Dec-08 20:30N 50°45' W 001°05'4 8.4
2019-Dec-08 20:00N 50°49' W 001°06'0 0.1
2019-Dec-08 18:01N 50°49' W 001°06'0 0.0
2019-Dec-08 17:00N 50°49' W 001°06'0 0.0
2019-Dec-08 13:00N 50°49' W 001°06'0 0.0
2019-Dec-08 11:01N 50°49' W 001°06'0 0.0
2019-Dec-08 10:01N 50°49' W 001°06'0 0.0
2019-Dec-08 09:00N 50°49' W 001°06'66 9.4
2019-Dec-08 02:02N 49°51' W 001°54'2712.1
2019-Dec-07 23:47N 49°27' W 002°14'310.6
2019-Dec-07 23:28N 49°24' W 002°17'2210.6
2019-Dec-07 21:24N 49°02' W 002°22'1111.7
2019-Dec-07 20:28N 48°52' W 002°18'8 1.5
2019-Dec-07 15:00N 48°46' W 002°08'1 1.2
2019-Dec-07 14:29N 48°46' W 002°09'1 1.4
2019-Dec-07 13:47N 48°45' W 002°11'4 0.5
2019-Dec-07 06:22N 48°43' W 002°07'4613.7
2019-Dec-07 03:00N 49°29' W 002°12'8415.2
2019-Dec-06 21:30N 50°40' W 001°04'612.8
2019-Dec-06 21:00N 50°46' W 001°06'2 2.2
2019-Dec-06 20:00N 50°49' W 001°06'0 0.0
2019-Dec-06 19:30N 50°49' W 001°06'0 0.2
2019-Dec-06 18:00N 50°49' W 001°06'1211.7
2019-Dec-06 17:00N 50°37' W 001°07'5119.9
2019-Dec-06 14:27N 49°54' W 001°50'919.7
2019-Dec-06 13:59N 49°47' W 001°58'1919.9
2019-Dec-06 13:00N 49°29' W 002°12'918.6
2019-Dec-06 12:31N 49°21' W 002°18'1117.6
2019-Dec-06 11:54N 49°11' W 002°23'31 5.4
2019-Dec-06 06:13N 48°42' W 002°06'2614.9
2019-Dec-06 04:30N 49°05' W 002°24'3513.3
2019-Dec-06 01:52N 49°38' W 002°06'513.8
2019-Dec-06 01:30N 49°42' W 002°03'7612.6
2019-Dec-05 19:30N 50°49' W 001°06'0 0.0
2019-Dec-05 18:30N 50°49' W 001°06'2 2.2
2019-Dec-05 17:30N 50°46' W 001°06'1313.4
2019-Dec-05 16:31N 50°34' W 000°58'9 1.3
2019-Dec-05 08:59N 50°30' W 001°11'  
Track history (hours):
 
Tides and Currents Weather Stations Pressure Air Temp Water Temp Dewpoint Dewpoint Depression Visibility Wind Speed Wind Dir Waves Ship Positions

Pont Aven

Last reported at 2019-Dec-15 07:30 UTC. Time now 2019-Dec-15 10:42 UTC.
Position N 50°49' W 001°06'.

Length 185 m; beam 31 m.

Type: Passenger vessel. MMSI: 228183600.

Date/timePositionNaut miles runAvg speedWind from/ knotsBaromVisibWave heightAir tempDewpointWater temp
2019-Dec-15 07:30N 50°49' W 001°06'6514.5
2019-Dec-15 03:03N 49°52' W 001°53'116.7
2019-Dec-15 02:58N 49°50' W 001°55'2513.0
2019-Dec-15 01:00N 49°28' W 002°14'1616.2
2019-Dec-15 00:00N 49°16' W 002°29'4 0.2
2019-Dec-14 04:36N 49°15' W 002°24'318.9
2019-Dec-14 04:27N 49°17' W 002°24'1314.2
2019-Dec-14 03:31N 49°29' W 002°13'815.9
2019-Dec-14 02:59N 49°36' W 002°07'6416.2
2019-Dec-13 23:01N 50°31' W 001°15'5 9.7
2019-Dec-13 22:31N 50°35' W 001°10'14 7.2
2019-Dec-13 20:30N 50°49' W 001°06'0 0.1
2019-Dec-13 18:31N 50°49' W 001°06'0 0.0
2019-Dec-13 17:00N 50°49' W 001°06'0 0.0
2019-Dec-13 16:00N 50°49' W 001°06'0 0.0
2019-Dec-13 13:00N 50°49' W 001°06'0 0.0
2019-Dec-13 08:30N 50°49' W 001°06'0 0.0
2019-Dec-13 07:01N 50°49' W 001°06'0 0.0
2019-Dec-13 06:30N 50°49' W 001°06'0 0.0
2019-Dec-13 06:00N 50°49' W 001°06'0 0.0
2019-Dec-13 04:30N 50°49' W 001°06'0 0.0
2019-Dec-13 02:01N 50°49' W 001°06'1 0.4
2019-Dec-12 23:30N 50°48' W 001°07'30 8.7
2019-Dec-12 20:00N 50°38' W 001°52'4 0.7
2019-Dec-12 15:00N 50°34' W 001°53'2 1.3
2019-Dec-12 13:30N 50°36' W 001°53'6 5.7
2019-Dec-12 12:30N 50°42' W 001°50'14 8.3
2019-Dec-12 10:50N 50°35' W 001°31'410.6
2019-Dec-12 10:30N 50°34' W 001°25'12 8.0
2019-Dec-12 09:00N 50°37' W 001°07'11 7.3
2019-Dec-12 07:31N 50°48' W 001°07'1 0.8
2019-Dec-12 06:00N 50°49' W 001°06'0 0.0
2019-Dec-12 04:30N 50°49' W 001°06'0 0.0
2019-Dec-12 02:00N 50°49' W 001°06'0 0.0
2019-Dec-12 01:30N 50°49' W 001°06'0 0.0
2019-Dec-12 00:30N 50°49' W 001°06'0 0.0
2019-Dec-12 00:00N 50°49' W 001°06'0 0.0
2019-Dec-11 22:30N 50°49' W 001°06'0 0.0
2019-Dec-11 21:00N 50°49' W 001°06'0 0.0
2019-Dec-11 19:30N 50°49' W 001°06'11313.3
2019-Dec-11 11:00N 49°07' W 002°23'9 1.3
2019-Dec-11 04:19N 49°16' W 002°22'1416.1
2019-Dec-11 03:29N 49°28' W 002°13'816.8
2019-Dec-11 03:00N 49°35' W 002°08'6713.0
2019-Dec-10 21:49N 50°32' W 001°11'1511.2
2019-Dec-10 20:31N 50°46' W 001°05'3 1.4
2019-Dec-10 18:30N 50°49' W 001°06'0 0.0
2019-Dec-10 16:30N 50°49' W 001°06'0 0.0
2019-Dec-10 14:30N 50°49' W 001°06'0 0.0
2019-Dec-10 13:00N 50°49' W 001°06'0 0.0
2019-Dec-10 12:30N 50°49' W 001°06'0 0.0
2019-Dec-10 11:30N 50°49' W 001°06'0 0.0
2019-Dec-10 10:30N 50°49' W 001°06'0 0.0
2019-Dec-10 09:30N 50°49' W 001°06'0 0.0
2019-Dec-10 09:00N 50°49' W 001°06'0 0.0
2019-Dec-10 06:30N 50°49' W 001°06'0 0.0
2019-Dec-10 04:30N 50°49' W 001°06'0 0.0
2019-Dec-10 03:30N 50°49' W 001°06'0 0.0
2019-Dec-10 03:00N 50°49' W 001°06'0 0.0
2019-Dec-10 02:00N 50°49' W 001°06'0 0.0
2019-Dec-09 22:00N 50°49' W 001°05'0 0.0
2019-Dec-09 21:00N 50°49' W 001°05'0 0.0
2019-Dec-09 20:30N 50°49' W 001°05'0 0.6
2019-Dec-09 20:00N 50°49' W 001°06'0 0.1
2019-Dec-09 18:01N 50°49' W 001°06'4 0.2
2019-Dec-08 20:30N 50°45' W 001°05'4 8.4
2019-Dec-08 20:00N 50°49' W 001°06'0 0.1
2019-Dec-08 18:01N 50°49' W 001°06'0 0.0
2019-Dec-08 17:00N 50°49' W 001°06'0 0.0
2019-Dec-08 13:00N 50°49' W 001°06'0 0.0
2019-Dec-08 11:01N 50°49' W 001°06'0 0.0
2019-Dec-08 10:01N 50°49' W 001°06'0 0.0
2019-Dec-08 09:00N 50°49' W 001°06'66 9.4
2019-Dec-08 02:02N 49°51' W 001°54'2712.1
2019-Dec-07 23:47N 49°27' W 002°14'310.6
2019-Dec-07 23:28N 49°24' W 002°17'2210.6
2019-Dec-07 21:24N 49°02' W 002°22'1111.7
2019-Dec-07 20:28N 48°52' W 002°18'8 1.5
2019-Dec-07 15:00N 48°46' W 002°08'1 1.2
2019-Dec-07 14:29N 48°46' W 002°09'1 1.4
2019-Dec-07 13:47N 48°45' W 002°11'4 0.5
2019-Dec-07 06:22N 48°43' W 002°07'4613.7
2019-Dec-07 03:00N 49°29' W 002°12'8415.2
2019-Dec-06 21:30N 50°40' W 001°04'612.8
2019-Dec-06 21:00N 50°46' W 001°06'2 2.2
2019-Dec-06 20:00N 50°49' W 001°06'0 0.0
2019-Dec-06 19:30N 50°49' W 001°06'0 0.2
2019-Dec-06 18:00N 50°49' W 001°06'1211.7
2019-Dec-06 17:00N 50°37' W 001°07'5119.9
2019-Dec-06 14:27N 49°54' W 001°50'919.7
2019-Dec-06 13:59N 49°47' W 001°58'1919.9
2019-Dec-06 13:00N 49°29' W 002°12'918.6
2019-Dec-06 12:31N 49°21' W 002°18'1117.6
2019-Dec-06 11:54N 49°11' W 002°23'31 5.4
2019-Dec-06 06:13N 48°42' W 002°06'2614.9
2019-Dec-06 04:30N 49°05' W 002°24'3513.3
2019-Dec-06 01:52N 49°38' W 002°06'513.8
2019-Dec-06 01:30N 49°42' W 002°03'7612.6
2019-Dec-05 19:30N 50°49' W 001°06'0 0.0
2019-Dec-05 18:30N 50°49' W 001°06'2 2.2
2019-Dec-05 17:30N 50°46' W 001°06'1313.4
2019-Dec-05 16:31N 50°34' W 000°58'9 1.3
2019-Dec-05 08:59N 50°30' W 001°11'  

Dump ship's entire track history